Time;durP1;ratioP1;P1;durP2;ratioP2;P2;SDS_P1;SDS_P2;PMS_P1;PMS_P2;Temp;Humidity;BMP_temperature;BMP_pressure;BME280_temperature;BME280_humidity;BME280_pressure;Samples;Min_cycle;Max_cycle;Signal;HPM_P1;HPM_P2
2021/05/13 00:00:12;;;;;;;12.63;7.00;;;14.40;99.90;;;14.61;69.06;100872.72;4826850;29;20063;-70
2021/05/13 00:02:41;;;;;;;17.25;8.02;;;14.30;99.90;;;14.71;69.04;100893.78;4826850;29;20133;-70
2021/05/13 00:05:11;;;;;;;14.13;7.30;;;14.40;99.90;;;14.71;68.94;100876.97;4826464;29;20042;-70
2021/05/13 00:07:39;;;;;;;14.32;7.57;;;14.30;99.90;;;14.71;68.59;100877.81;4826753;29;20038;-70
2021/05/13 00:10:10;;;;;;;15.95;8.40;;;14.40;99.90;;;14.71;68.67;100864.50;4826646;29;20103;-70
2021/05/13 00:12:41;;;;;;;14.02;7.90;;;14.30;99.90;;;14.69;68.76;100868.97;4810426;29;20554;-70
2021/05/13 00:15:15;;;;;;;17.65;8.18;;;14.30;99.90;;;14.72;68.52;100870.72;4826671;29;20046;-70
2021/05/13 00:17:44;;;;;;;15.48;7.95;;;14.30;99.90;;;14.68;68.33;100872.56;4826650;29;20062;-70
2021/05/13 00:20:16;;;;;;;15.65;7.25;;;14.30;99.90;;;14.67;68.74;100857.50;4826855;29;20051;-71
2021/05/13 00:22:44;;;;;;;15.63;7.50;;;14.30;99.90;;;14.73;68.50;100870.66;4826570;29;20054;-70
2021/05/13 00:25:13;;;;;;;15.38;7.53;;;14.40;99.90;;;14.74;68.47;100864.44;4826471;29;20111;-71
2021/05/13 00:27:41;;;;;;;14.10;7.55;;;14.40;99.90;;;14.59;68.81;100867.44;4826337;29;20054;-70
2021/05/13 00:30:10;;;;;;;16.48;8.30;;;14.30;99.90;;;14.31;69.00;100844.94;4809344;29;20058;-70
2021/05/13 00:32:40;;;;;;;16.50;7.78;;;14.20;99.90;;;14.43;69.10;100866.88;4826053;29;20425;-70
2021/05/13 00:35:12;;;;;;;14.23;7.88;;;14.10;99.90;;;14.49;69.29;100865.88;4809662;29;20066;-70
2021/05/13 00:37:41;;;;;;;21.42;8.40;;;14.20;99.90;;;14.47;69.29;100854.38;4826296;29;20054;-70
2021/05/13 00:40:12;;;;;;;17.05;8.13;;;14.20;99.90;;;14.45;69.26;100861.53;4826280;29;20050;-70
2021/05/13 00:42:40;;;;;;;17.95;8.23;;;14.10;99.90;;;14.45;69.12;100859.75;4826009;29;20050;-70
2021/05/13 00:45:12;;;;;;;18.80;8.90;;;14.10;99.90;;;14.45;69.34;100848.22;4809881;29;20504;-70
2021/05/13 00:47:47;;;;;;;17.48;8.57;;;14.10;99.90;;;14.44;68.89;100852.66;4809730;29;20065;-70
2021/05/13 00:50:17;;;;;;;17.70;8.70;;;14.10;99.90;;;14.43;68.97;100845.59;4826139;29;20058;-70
2021/05/13 00:52:46;;;;;;;18.48;8.52;;;14.10;99.90;;;14.44;68.96;100846.44;4826365;29;20093;-70
2021/05/13 00:55:16;;;;;;;13.82;7.70;;;14.10;99.90;;;14.44;68.90;100846.44;4825762;29;20142;-70
2021/05/13 00:57:48;;;;;;;18.98;8.10;;;14.10;99.90;;;14.13;69.46;100853.28;4826005;29;20061;-70
2021/05/13 01:00:32;;;;;;;19.77;9.55;;;13.90;99.90;;;13.66;70.70;100850.59;4825983;29;20058;-70
2021/05/13 01:03:01;;;;;;;21.73;9.00;;;13.50;99.90;;;13.52;71.07;100832.22;4825712;29;20057;-70
2021/05/13 01:05:32;;;;;;;17.15;8.95;;;13.40;99.90;;;13.80;70.90;100843.25;4809167;29;20549;-70
2021/05/13 01:08:02;;;;;;;15.43;8.25;;;13.50;99.90;;;13.75;71.02;100848.66;4825861;29;20080;-70
2021/05/13 01:10:31;;;;;;;16.42;9.20;;;13.50;99.90;;;13.65;70.94;100817.81;4826056;29;20058;-70
2021/05/13 01:13:02;;;;;;;16.67;9.70;;;13.50;99.90;;;13.62;71.23;100843.56;4825498;29;20042;-70
2021/05/13 01:15:40;;;;;;;17.75;9.23;;;13.30;99.90;;;13.41;71.96;100823.56;4825725;29;20463;-70
2021/05/13 01:18:15;;;;;;;22.13;9.55;;;13.30;99.90;;;13.41;72.38;100837.69;4809435;29;20077;-70
2021/05/13 01:20:44;;;;;;;18.92;8.90;;;13.20;99.90;;;13.56;72.33;100841.91;4825484;29;20103;-70
2021/05/13 01:23:14;;;;;;;15.88;8.73;;;13.20;99.90;;;13.69;72.17;100842.53;4825514;29;20054;-69
2021/05/13 01:25:46;;;;;;;19.88;10.18;;;13.30;99.90;;;13.77;71.59;100840.63;4808874;29;20087;-70
2021/05/13 01:28:14;;;;;;;16.42;9.35;;;13.40;99.90;;;13.80;71.46;100840.59;4809205;29;20065;-70
2021/05/13 01:30:44;;;;;;;18.25;9.60;;;13.50;99.90;;;13.85;71.42;100828.09;4825414;29;20077;-70
2021/05/13 01:33:13;;;;;;;15.00;9.23;;;13.60;99.90;;;13.87;71.36;100828.94;4825708;29;20104;-70
2021/05/13 01:35:41;;;;;;;18.02;9.40;;;13.60;99.90;;;13.93;71.17;100837.69;4825506;29;20050;-70
2021/05/13 01:38:14;;;;;;;21.25;9.77;;;13.60;99.90;;;13.99;70.79;100828.72;4808947;29;20053;-70
2021/05/13 01:40:52;;;;;;;23.90;10.57;;;13.70;99.90;;;13.98;70.75;100826.94;4825386;29;20050;-70
2021/05/13 01:43:20;;;;;;;19.33;10.07;;;13.70;99.90;;;14.02;70.69;100829.53;4808815;29;20050;-70
2021/05/13 01:45:48;;;;;;;18.83;10.35;;;13.70;99.90;;;14.01;70.69;100830.44;4825267;29;20054;-70
2021/05/13 01:48:16;;;;;;;20.85;10.52;;;13.70;99.90;;;14.04;70.46;100824.16;4824764;29;20141;-70
2021/05/13 01:50:48;;;;;;;17.10;9.85;;;13.70;99.90;;;13.87;70.80;100805.88;4825055;29;20141;-70
2021/05/13 01:53:17;;;;;;;18.88;9.65;;;13.70;99.90;;;13.82;70.62;100798.91;4824907;29;20493;-70
2021/05/13 01:55:45;;;;;;;16.85;9.25;;;13.70;99.90;;;13.96;70.66;100815.44;4824822;29;20095;-70
2021/05/13 01:58:13;;;;;;;18.40;10.00;;;13.70;99.90;;;13.94;71.00;100826.13;4808855;29;20046;-70
2021/05/13 02:00:45;;;;;;;16.02;9.20;;;13.60;99.90;;;13.89;70.79;100819.16;4825070;29;20057;-70
2021/05/13 02:03:14;;;;;;;22.35;9.98;;;13.60;99.90;;;13.71;70.97;100820.34;4824802;29;20058;-70
2021/05/13 02:05:42;;;;;;;18.15;10.02;;;13.50;99.90;;;13.70;71.33;100820.38;4824951;29;20039;-70
2021/05/13 02:08:10;;;;;;;21.73;10.38;;;13.40;99.90;;;13.29;72.65;100829.06;4824936;29;20062;-70
2021/05/13 02:10:39;;;;;;;21.08;11.05;;;13.10;99.90;;;13.07;73.43;100819.66;4824552;29;20509;-70
2021/05/13 02:13:07;;;;;;;26.08;10.50;;;12.90;99.90;;;13.16;73.74;100819.53;4824853;29;20050;-70
2021/05/13 02:15:35;;;;;;;21.90;10.85;;;12.90;99.90;;;12.86;74.16;100815.53;4808342;29;20098;-70
2021/05/13 02:18:03;;;;;;;22.80;10.57;;;12.70;99.90;;;12.65;75.29;100807.88;4808231;29;20408;-70
2021/05/13 02:20:31;;;;;;;20.15;11.25;;;12.50;99.90;;;12.89;75.28;100810.16;4824687;29;20504;-70
2021/05/13 02:23:00;;;;;;;19.48;10.35;;;12.60;99.90;;;12.93;75.09;100814.53;4808258;29;20068;-70
2021/05/13 02:25:31;;;;;;;22.23;11.68;;;12.60;99.90;;;12.87;75.05;100814.66;4824686;29;20054;-69
2021/05/13 02:28:01;;;;;;;21.02;11.05;;;12.70;99.90;;;12.91;74.52;100779.16;4824489;29;20042;-70
2021/05/13 02:30:29;;;;;;;18.10;10.63;;;12.80;99.90;;;13.15;74.32;100807.16;4824574;29;20038;-69
2021/05/13 02:32:57;;;;;;;21.95;11.35;;;12.80;99.90;;;13.24;74.27;100797.25;4824336;29;20063;-70
2021/05/13 02:35:25;;;;;;;21.08;11.70;;;13.00;99.90;;;13.12;74.24;100801.91;4824938;29;20043;-70
2021/05/13 02:37:53;;;;;;;18.95;11.60;;;12.90;99.90;;;13.06;74.07;100808.19;4824281;29;20058;-70
2021/05/13 02:40:21;;;;;;;19.63;12.23;;;12.80;99.90;;;12.90;74.58;100795.13;4824495;29;20087;-69
2021/05/13 02:42:50;;;;;;;20.92;11.77;;;12.70;99.90;;;13.00;74.82;100794.97;4824465;29;20053;-70
2021/05/13 02:45:19;;;;;;;24.92;13.48;;;12.70;99.90;;;12.94;75.02;100786.22;4824390;29;20054;-70
2021/05/13 02:47:47;;;;;;;21.05;13.18;;;12.70;99.90;;;12.93;74.85;100785.31;4807815;29;20078;-70
2021/05/13 02:50:16;;;;;;;26.40;12.88;;;12.70;99.90;;;12.33;74.99;100685.44;4807736;29;20051;-70
2021/05/13 02:52:44;;;;;;;19.10;13.55;;;12.70;99.90;;;12.94;75.19;100787.09;4824389;29;20079;-70
2021/05/13 02:55:13;;;;;;;26.67;13.43;;;12.70;99.90;;;12.68;75.97;100784.81;4823861;29;20042;-69
2021/05/13 02:57:42;;;;;;;24.83;14.77;;;12.50;99.90;;;12.47;76.49;100795.72;4807767;29;20057;-69
2021/05/13 03:00:20;;;;;;;25.23;15.38;;;12.40;99.90;;;12.51;76.83;100776.22;4824207;29;20462;-70
2021/05/13 03:02:49;;;;;;;22.67;14.60;;;12.30;99.90;;;12.63;76.69;100773.41;4824339;29;20251;-69
2021/05/13 03:05:18;;;;;;;21.67;15.15;;;12.40;99.90;;;12.49;76.80;100772.72;4824531;29;20442;-70
2021/05/13 03:07:48;;;;;;;23.63;14.87;;;12.40;99.90;;;12.65;76.86;100773.38;4823915;29;20077;-70
2021/05/13 03:10:21;;;;;;;26.23;15.75;;;12.40;99.90;;;12.68;76.84;100778.63;4823969;29;20095;-70
2021/05/13 03:12:51;;;;;;;21.20;14.60;;;12.40;99.90;;;12.69;76.63;100775.09;4824178;29;20046;-70
2021/05/13 03:15:19;;;;;;;22.17;15.55;;;12.50;99.90;;;12.84;76.34;100779.28;4823838;29;20050;-70
2021/05/13 03:17:50;;;;;;;24.50;15.45;;;12.50;99.90;;;12.75;76.43;100766.16;4807324;29;20053;-70
2021/05/13 03:20:19;;;;;;;25.35;16.00;;;12.50;99.90;;;12.73;76.54;100771.50;4824372;29;20058;-70
2021/05/13 03:22:51;;;;;;;25.83;17.10;;;12.50;99.90;;;12.64;76.57;100767.19;4823767;29;20174;-70
2021/05/13 03:25:25;;;;;;;26.35;16.27;;;12.50;99.90;;;12.74;76.81;100788.31;4824060;29;20050;-70
2021/05/13 03:27:56;;;;;;;25.42;17.02;;;12.50;99.90;;;12.40;76.36;100703.88;4807491;29;20062;-70
2021/05/13 03:30:25;;;;;;;23.80;16.85;;;12.60;99.90;;;12.88;76.15;100779.22;4823860;29;20042;-70
2021/05/13 03:32:54;;;;;;;22.80;15.65;;;12.60;99.90;;;12.96;76.03;100774.69;4823851;29;20042;-69
2021/05/13 03:35:22;;;;;;;23.27;15.45;;;12.70;99.90;;;12.91;75.63;100771.19;4823444;29;20085;-70
2021/05/13 03:37:50;;;;;;;24.83;15.70;;;12.70;99.90;;;12.85;75.93;100759.81;4823864;29;20047;-70
2021/05/13 03:40:18;;;;;;;28.75;16.52;;;12.70;99.90;;;13.01;75.63;100762.19;4823828;29;20054;-70
2021/05/13 03:42:46;;;;;;;22.70;15.77;;;12.70;99.90;;;12.97;75.70;100764.94;4823780;29;20382;-70
2021/05/13 03:45:14;;;;;;;23.48;16.33;;;12.70;99.90;;;13.02;75.69;100760.41;4823768;29;20050;-70
2021/05/13 03:47:42;;;;;;;25.15;16.85;;;12.80;99.90;;;13.02;75.61;100785.19;4823622;29;20054;-70
2021/05/13 03:50:12;;;;;;;23.98;16.13;;;12.80;99.90;;;13.03;75.46;100759.50;4823381;29;20042;-70
2021/05/13 03:52:41;;;;;;;23.30;17.20;;;12.80;99.90;;;13.08;75.37;100755.94;4823729;29;20054;-70
2021/05/13 03:55:10;;;;;;;21.45;15.75;;;12.80;99.90;;;13.08;75.25;100750.63;4807358;29;20149;-70
2021/05/13 03:57:39;;;;;;;21.40;15.23;;;12.80;99.90;;;13.11;75.16;100742.59;4823608;29;20058;-69
2021/05/13 04:00:12;;;;;;;23.58;16.35;;;12.80;99.90;;;13.13;75.00;100751.41;4823599;29;20103;-70
2021/05/13 04:02:41;;;;;;;27.02;16.13;;;12.90;99.90;;;13.09;74.81;100744.41;4823641;29;20078;-69
2021/05/13 04:05:12;;;;;;;20.23;15.10;;;12.90;99.90;;;13.18;74.56;100749.53;4823342;29;20066;-70
2021/05/13 04:07:40;;;;;;;24.23;15.10;;;12.90;99.90;;;13.07;74.44;100724.97;4810561;29;20446;-70
2021/05/13 04:10:10;;;;;;;24.50;15.35;;;12.90;99.90;;;13.19;74.30;100738.03;4826665;29;20047;-70
2021/05/13 04:12:39;;;;;;;24.48;15.05;;;12.90;99.90;;;13.26;74.09;100737.00;4810484;29;20474;-70
2021/05/13 04:15:09;;;;;;;22.02;14.43;;;13.00;99.90;;;13.13;74.19;100714.22;4826713;29;20042;-70
2021/05/13 04:17:38;;;;;;;22.30;13.57;;;13.00;99.90;;;13.21;74.26;100727.38;4826756;29;20046;-70
2021/05/13 04:20:09;;;;;;;21.75;14.35;;;13.00;99.90;;;13.06;74.35;100699.31;4826669;29;20504;-70
2021/05/13 04:22:37;;;;;;;23.17;14.10;;;12.90;99.90;;;13.27;73.93;100722.84;4826581;29;20508;-69
2021/05/13 04:25:07;;;;;;;20.38;14.27;;;13.00;99.90;;;13.35;73.91;100726.25;4826482;29;20042;-70
2021/05/13 04:27:35;;;;;;;21.87;13.93;;;13.00;99.90;;;12.99;73.79;100670.22;4810300;29;20141;-70
2021/05/13 04:30:06;;;;;;;19.52;13.52;;;13.00;99.90;;;13.22;73.87;100706.09;4826432;29;20054;-70
2021/05/13 04:32:33;;;;;;;23.80;14.95;;;13.00;99.90;;;13.36;73.82;100738.59;4826431;29;20396;-70
2021/05/13 04:35:02;;;;;;;22.17;14.00;;;13.10;99.90;;;13.47;73.88;100731.31;4826025;29;20467;-70
2021/05/13 04:37:30;;;;;;;21.23;14.18;;;13.10;99.90;;;13.49;73.49;100729.50;4826327;29;20042;-70
2021/05/13 04:39:59;;;;;;;21.65;13.52;;;13.20;99.90;;;13.50;73.48;100719.75;4826030;29;20062;-70
2021/05/13 04:42:29;;;;;;;21.80;13.55;;;13.20;99.90;;;13.50;73.50;100723.31;4826317;29;20051;-70
2021/05/13 04:44:58;;;;;;;21.13;13.48;;;13.20;99.90;;;13.39;73.87;100725.25;4826243;29;20042;-70
2021/05/13 04:47:30;;;;;;;19.00;13.02;;;13.10;99.90;;;13.48;73.64;100725.09;4826173;29;20050;-70
2021/05/13 04:49:59;;;;;;;20.13;13.88;;;13.10;99.90;;;13.45;73.87;100721.63;4826175;29;20050;-69
2021/05/13 04:52:27;;;;;;;21.63;14.35;;;13.20;99.90;;;13.51;73.83;100730.34;4809755;29;20466;-70
2021/05/13 04:54:57;;;;;;;19.65;13.13;;;13.20;99.90;;;13.56;74.04;100717.88;4826261;29;20062;-70
2021/05/13 04:57:26;;;;;;;22.25;14.35;;;13.20;99.90;;;13.59;74.11;100725.78;4826039;29;20050;-70
2021/05/13 04:59:55;;;;;;;20.52;14.60;;;13.30;99.90;;;13.61;73.90;100724.88;4825982;29;20093;-70
2021/05/13 05:02:23;;;;;;;23.55;15.50;;;13.30;99.90;;;13.66;73.82;100729.19;4826167;29;20133;-70
2021/05/13 05:04:51;;;;;;;21.52;14.32;;;13.30;99.90;;;13.73;73.79;100721.97;4826080;29;20058;-70
2021/05/13 05:07:19;;;;;;;26.25;15.55;;;13.40;99.90;;;13.78;73.90;100730.75;4825875;29;20189;-70
2021/05/13 05:09:47;;;;;;;20.60;15.40;;;13.50;99.90;;;13.80;73.79;100723.63;4825841;29;20102;-69
2021/05/13 05:12:15;;;;;;;23.70;15.85;;;13.50;99.90;;;13.85;73.72;100724.38;4825731;29;20047;-70
2021/05/13 05:14:43;;;;;;;23.63;15.70;;;13.60;99.90;;;13.86;73.29;100723.50;4809592;29;20079;-70
2021/05/13 05:17:11;;;;;;;22.88;15.40;;;13.60;99.90;;;13.92;73.33;100726.00;4825292;29;20058;-70
2021/05/13 05:19:40;;;;;;;24.83;16.42;;;13.60;99.90;;;13.68;74.12;100723.84;4825702;29;20050;-70
2021/05/13 05:22:08;;;;;;;23.52;16.88;;;13.50;99.90;;;13.45;75.04;100724.28;4825655;29;20103;-69
2021/05/13 05:24:36;;;;;;;22.90;15.32;;;13.30;99.90;;;13.71;74.96;100719.34;4825268;29;20427;-69
2021/05/13 05:27:05;;;;;;;19.85;14.85;;;13.40;99.90;;;13.86;74.81;100719.03;4825453;29;20071;-70
2021/05/13 05:29:33;;;;;;;20.75;16.40;;;13.50;99.90;;;13.89;74.81;100711.00;4825422;29;20050;-69
2021/05/13 05:32:02;;;;;;;22.27;16.10;;;13.60;99.90;;;13.94;74.47;100703.81;4825367;29;20061;-70
2021/05/13 05:34:30;;;;;;;24.95;16.58;;;13.70;99.90;;;14.15;73.98;100715.78;4825530;29;20070;-70
2021/05/13 05:36:57;;;;;;;25.75;16.42;;;13.90;99.90;;;13.27;74.03;100602.44;4809006;29;20133;-69
2021/05/13 05:39:26;;;;;;;20.50;16.23;;;13.80;99.90;;;13.62;75.31;100710.69;4825627;29;20174;-69
2021/05/13 05:41:54;;;;;;;24.25;16.85;;;13.40;99.90;;;13.19;76.33;100714.13;4825031;29;20042;-70
2021/05/13 05:44:22;;;;;;;26.77;17.45;;;13.20;99.90;;;13.36;77.26;100706.72;4825515;29;20390;-70
2021/05/13 05:46:50;;;;;;;30.38;18.75;;;13.10;99.90;;;13.10;77.59;100678.91;4825091;29;20058;-69
2021/05/13 05:49:19;;;;;;;25.98;18.05;;;13.10;99.90;;;12.96;79.15;100699.47;4825322;29;20057;-69
2021/05/13 05:51:48;;;;;;;26.90;20.08;;;12.90;99.90;;;12.46;81.53;100697.59;4825139;29;20528;-70
2021/05/13 05:54:16;;;;;;;24.58;19.27;;;12.40;99.90;;;11.87;81.50;100565.91;4808750;29;20054;-70
2021/05/13 05:56:43;;;;;;;26.92;18.45;;;12.40;99.90;;;12.91;81.80;100693.34;4824858;29;20103;-70
2021/05/13 05:59:14;;;;;;;25.23;18.55;;;12.50;99.90;;;13.13;80.86;100692.09;4825093;29;20061;-70
2021/05/13 06:01:42;;;;;;;25.88;18.50;;;12.80;99.90;;;13.26;80.33;100694.50;4808834;29;20520;-70
2021/05/13 06:04:10;;;;;;;23.40;18.52;;;13.00;99.90;;;13.42;79.73;100700.41;4825110;29;20081;-70
2021/05/13 06:06:39;;;;;;;25.77;18.50;;;13.10;99.90;;;13.16;81.03;100698.22;4824754;29;20038;-70
2021/05/13 06:09:08;;;;;;;25.00;17.23;;;12.90;99.90;;;13.44;80.21;100688.88;4824942;29;20046;-70
2021/05/13 06:11:36;;;;;;;28.45;17.40;;;13.10;99.90;;;13.59;78.94;100696.53;4824813;29;20116;-70
2021/05/13 06:14:05;;;;;;;25.05;17.88;;;13.40;99.90;;;13.58;79.50;100701.88;4824635;29;20485;-70
2021/05/13 06:16:32;;;;;;;22.15;17.17;;;13.40;99.90;;;13.50;79.27;100679.91;4824946;29;20057;-70
2021/05/13 06:19:01;;;;;;;25.55;17.60;;;13.30;99.90;;;13.57;80.22;100679.75;4824544;29;20535;-70
2021/05/13 06:21:29;;;;;;;25.85;17.83;;;13.40;99.90;;;13.69;79.43;100699.88;4808299;29;20054;-70
2021/05/13 06:24:00;;;;;;;25.23;17.10;;;13.50;99.90;;;13.48;80.79;100687.03;4824729;29;20144;-70
2021/05/13 06:26:30;;;;;;;26.95;18.25;;;13.30;99.90;;;13.37;81.89;100689.91;4808262;29;20096;-70
2021/05/13 06:29:04;;;;;;;27.35;17.67;;;13.10;99.90;;;13.63;81.32;100697.34;4824013;29;20054;-69
2021/05/13 06:31:33;;;;;;;23.50;16.70;;;13.30;99.90;;;13.90;80.00;100691.47;4824473;29;20493;-70
2021/05/13 06:34:01;;;;;;;21.60;17.20;;;13.60;99.90;;;13.83;79.68;100694.31;4824652;29;20058;-70
2021/05/13 06:36:29;;;;;;;27.77;17.30;;;13.60;99.90;;;13.33;80.25;100664.28;4824233;29;20103;-70
2021/05/13 06:38:58;;;;;;;24.10;17.20;;;13.40;99.90;;;13.28;81.11;100694.47;4807967;29;20065;-70
2021/05/13 06:41:25;;;;;;;26.65;18.15;;;13.10;99.90;;;13.48;81.25;100692.34;4824478;29;20088;-70
2021/05/13 06:43:53;;;;;;;25.42;18.58;;;13.20;99.90;;;13.66;80.71;100693.78;4807777;29;20051;-69
2021/05/13 06:46:24;;;;;;;25.05;18.65;;;13.40;99.90;;;13.28;80.16;100585.56;4824401;29;20070;-70
2021/05/13 06:48:53;;;;;;;24.80;17.63;;;13.50;99.90;;;13.95;80.72;100686.97;4824687;29;20379;-69
2021/05/13 06:51:21;;;;;;;26.30;18.05;;;13.70;99.90;;;13.98;80.29;100691.31;4824245;29;20528;-70
2021/05/13 06:53:50;;;;;;;26.90;17.60;;;13.70;99.90;;;13.62;81.25;100694.72;4824373;29;20050;-70
2021/05/13 06:56:21;;;;;;;29.85;19.88;;;13.50;99.90;;;13.31;81.54;100692.66;4823940;29;20457;-70
2021/05/13 06:58:49;;;;;;;23.88;19.02;;;13.20;99.90;;;13.36;82.57;100685.47;4824040;29;20490;-71
2021/05/13 07:01:17;;;;;;;31.70;19.30;;;13.10;99.90;;;13.79;82.13;100688.16;4823993;29;20058;-73
2021/05/13 07:03:45;;;;;;;26.70;19.85;;;13.30;99.90;;;14.15;80.74;100670.56;4823803;29;20138;-71
2021/05/13 07:06:13;;;;;;;26.70;20.20;;;13.80;99.90;;;14.56;80.01;100683.81;4807708;29;20069;-70
2021/05/13 07:08:41;;;;;;;30.17;20.85;;;14.20;99.90;;;14.75;78.58;100666.50;4807869;29;20062;-70
2021/05/13 07:11:08;;;;;;;27.30;19.80;;;14.50;99.90;;;15.05;77.61;100676.38;4807626;29;20042;-69
2021/05/13 07:13:37;;;;;;;29.63;20.85;;;14.80;99.90;;;15.07;76.29;100661.25;4823913;29;20065;-70
2021/05/13 07:16:05;;;;;;;28.15;20.08;;;14.90;99.90;;;15.37;75.27;100683.50;4823752;29;20083;-69
2021/05/13 07:18:33;;;;;;;26.27;19.48;;;15.10;99.90;;;15.46;76.02;100682.44;4823560;29;20133;-69
2021/05/13 07:21:02;;;;;;;27.20;21.05;;;15.20;99.90;;;15.79;75.34;100681.50;4823644;29;20046;-69
2021/05/13 07:23:30;;;;;;;28.30;21.13;;;15.40;99.90;;;16.02;73.40;100685.25;4824296;29;20164;-69
2021/05/13 07:25:59;;;;;;;27.30;21.27;;;15.70;99.90;;;16.21;73.44;100683.78;4823678;29;20435;-69
2021/05/13 07:28:27;;;;;;;25.13;18.87;;;15.90;99.90;;;16.58;72.64;100682.66;4823861;29;20111;-71
2021/05/13 07:30:56;;;;;;;27.67;20.40;;;16.30;99.90;;;16.32;71.07;100670.09;4823085;29;20122;-71
2021/05/13 07:33:24;;;;;;;23.83;19.92;;;16.20;99.90;;;16.81;71.11;100699.69;4823809;29;20039;-66
2021/05/13 07:35:53;;;;;;;29.90;19.05;;;16.50;99.90;;;16.94;69.31;100679.66;4823676;29;20046;-67
2021/05/13 07:38:21;;;;;;;26.50;19.60;;;16.70;99.90;;;17.17;69.42;100686.03;4823915;29;20051;-66
2021/05/13 07:40:49;;;;;;;26.35;20.05;;;16.90;99.90;;;16.89;67.85;100689.66;4825838;29;20053;-64
2021/05/13 07:43:18;;;;;;;23.92;19.48;;;16.80;99.90;;;16.89;67.53;100688.75;4826844;29;20108;-70
2021/05/13 07:45:46;;;;;;;23.00;19.10;;;16.70;99.90;;;16.86;66.75;100684.38;4810704;29;20080;-67
2021/05/13 07:48:17;;;;;;;23.38;20.42;;;16.70;99.90;;;17.01;67.65;100689.22;4826679;29;20133;-69
2021/05/13 07:50:45;;;;;;;25.30;19.70;;;16.70;99.90;;;17.06;68.70;100678.38;4810640;29;20069;-69
2021/05/13 07:53:13;;;;;;;24.23;18.42;;;16.80;99.90;;;17.12;67.61;100687.06;4826605;29;20091;-68
2021/05/13 07:55:41;;;;;;;26.20;19.27;;;16.90;99.90;;;17.05;67.89;100682.84;4827022;29;20061;-71
2021/05/13 07:58:09;;;;;;;22.23;18.95;;;16.80;99.90;;;17.23;66.75;100685.84;4826638;29;20072;-70
2021/05/13 08:00:37;;;;;;;23.42;19.33;;;16.90;99.90;;;17.18;67.67;100683.31;4810599;29;20058;-70
2021/05/13 08:03:06;;;;;;;25.40;19.10;;;16.90;99.90;;;17.25;66.75;100651.91;4826978;29;20393;-72
2021/05/13 08:05:35;;;;;;;22.48;18.48;;;17.10;99.90;;;17.49;66.29;100683.13;4826789;29;20046;-69
2021/05/13 08:08:04;;;;;;;26.05;18.30;;;17.20;99.90;;;17.35;64.84;100690.72;4826388;29;20050;-68
2021/05/13 08:10:32;;;;;;;20.85;17.38;;;17.10;99.90;;;17.40;64.82;100683.44;4826180;29;20107;-66
2021/05/13 08:13:00;;;;;;;27.05;18.23;;;17.10;99.90;;;17.56;64.91;100681.97;4810265;29;20067;-75
2021/05/13 08:15:28;;;;;;;26.05;17.90;;;17.30;99.90;;;17.59;64.75;100681.88;4826332;29;20054;-70
2021/05/13 08:17:56;;;;;;;23.95;17.50;;;17.30;99.90;;;17.51;63.77;100675.94;4810193;29;20042;-70
2021/05/13 08:20:24;;;;;;;19.30;15.98;;;17.30;99.90;;;17.49;63.45;100683.13;4826339;29;20118;-68
2021/05/13 08:22:53;;;;;;;31.88;19.45;;;17.30;99.90;;;17.91;63.51;100682.44;4826425;29;20457;-68
2021/05/13 08:25:21;;;;;;;21.73;15.60;;;17.60;99.90;;;18.27;63.25;100669.47;4810033;29;20058;-67
2021/05/13 08:27:50;;;;;;;20.10;15.18;;;17.90;99.90;;;18.56;61.65;100679.91;4826387;29;20046;-72
2021/05/13 08:30:20;;;;;;;24.35;16.00;;;18.20;99.90;;;18.14;61.61;100673.53;4826244;29;20065;-69
2021/05/13 08:32:48;;;;;;;21.23;16.27;;;18.00;99.90;;;17.67;60.84;100648.56;4826336;29;20106;-67
2021/05/13 08:35:16;;;;;;;22.27;15.38;;;17.70;99.90;;;17.97;61.41;100673.31;4826105;29;20058;-69
2021/05/13 08:37:44;;;;;;;21.15;15.80;;;17.70;99.90;;;18.34;61.21;100675.44;4825865;29;20082;-68
2021/05/13 08:40:13;;;;;;;21.15;15.23;;;18.00;99.90;;;18.63;59.95;100676.09;4825760;29;20049;-66
2021/05/13 08:42:41;;;;;;;18.88;13.60;;;18.30;99.90;;;18.69;57.79;100658.88;4826123;29;20127;-69
2021/05/13 08:45:10;;;;;;;18.13;13.77;;;18.50;99.90;;;19.14;57.46;100675.72;4826077;29;20434;-67
2021/05/13 08:47:41;;;;;;;20.70;13.70;;;18.80;99.90;;;19.32;58.13;100676.72;4826033;29;20398;-71
2021/05/13 08:50:10;;;;;;;18.77;13.75;;;19.00;99.90;;;19.39;57.18;100670.22;4826301;29;20054;-70
2021/05/13 08:52:38;;;;;;;17.45;13.50;;;19.20;99.90;;;19.07;57.11;100670.66;4825060;29;20099;-68
2021/05/13 08:55:08;;;;;;;18.70;12.98;;;19.00;99.90;;;18.56;57.65;100663.00;4825452;29;20050;-67
2021/05/13 08:57:37;;;;;;;16.90;12.40;;;18.50;99.90;;;18.73;57.27;100663.19;4825652;29;20058;-66
2021/05/13 09:00:08;;;;;;;15.68;11.45;;;18.40;99.90;;;19.10;56.97;100641.94;4825857;29;20287;-70
2021/05/13 09:02:36;;;;;;;21.60;13.75;;;18.80;99.90;;;18.99;55.86;100654.06;4825906;29;20054;-67
2021/05/13 09:05:07;;;;;;;16.67;12.68;;;18.90;99.90;;;19.05;56.50;100661.84;4809338;29;20485;-68
2021/05/13 09:07:35;;;;;;;18.38;12.40;;;18.80;99.90;;;19.01;55.23;100657.56;4825894;29;20042;-68
2021/05/13 09:10:09;;;;;;;18.83;13.23;;;18.80;99.90;;;18.65;56.98;100650.09;4825493;29;20049;-69
2021/05/13 09:12:40;;;;;;;16.98;12.15;;;18.60;99.90;;;19.20;55.92;100648.63;4825861;29;20130;-66
2021/05/13 09:15:10;;;;;;;21.25;14.15;;;18.90;99.90;;;18.66;56.68;100657.19;4825442;29;20113;-69
2021/05/13 09:17:41;;;;;;;;;;;18.60;99.90;;;18.72;55.97;100659.63;4825756;29;20501;-68
2021/05/13 09:20:26;;;;;;;21.48;12.57;;;18.50;99.90;;;18.46;55.63;100649.09;4809247;29;19925;-68
2021/05/13 09:23:10;;;;;;;15.82;11.95;;;18.30;99.90;;;18.65;57.02;100651.91;4825226;29;20047;-68
2021/05/13 09:25:39;;;;;;;19.08;12.15;;;18.20;99.90;;;18.22;54.39;100552.75;4809122;29;20054;-69
2021/05/13 09:28:09;;;;;;;15.65;12.27;;;18.50;99.90;;;18.40;55.91;100643.06;4825261;29;20046;-71
2021/05/13 09:30:37;;;;;;;17.25;12.82;;;18.30;99.90;;;18.58;55.67;100645.91;4824947;29;20110;-67
2021/05/13 09:33:08;;;;;;;17.13;10.95;;;18.30;99.90;;;18.64;55.80;100618.84;4825050;29;20046;-66
2021/05/13 09:35:40;;;;;;;15.23;12.20;;;18.40;99.90;;;18.68;55.99;100641.03;4808815;29;20103;-70
2021/05/13 09:38:09;;;;;;;14.75;10.32;;;18.50;99.90;;;18.40;55.29;100618.97;4825351;29;20055;-75
2021/05/13 09:40:40;;;;;;;16.63;11.63;;;18.40;99.90;;;18.97;55.13;100647.88;4824841;29;20051;-75
2021/05/13 09:43:16;;;;;;;14.93;11.00;;;18.60;99.90;;;19.34;55.02;100656.09;4825207;29;20050;-71
2021/05/13 09:45:46;;;;;;;18.40;11.27;;;19.00;99.90;;;18.81;54.39;100651.19;4824918;29;20497;-68
2021/05/13 09:48:34;;;;;;;14.15;9.98;;;18.60;99.90;;;19.07;52.13;100639.38;4825171;29;20094;-67
2021/05/13 09:51:21;;;;;;;13.15;8.95;;;18.80;99.90;;;19.26;52.81;100642.16;4825212;29;20058;-67
2021/05/13 09:54:04;;;;;;;17.00;10.00;;;18.90;99.90;;;18.83;51.08;100640.44;4824737;29;20489;-66
2021/05/13 09:56:33;;;;;;;17.17;10.80;;;18.70;99.90;;;18.85;53.79;100642.09;4825134;29;20064;-67
2021/05/13 09:59:24;;;;;;;12.88;9.43;;;18.60;99.90;;;18.92;54.41;100638.22;4808769;29;20047;-67
2021/05/13 10:01:54;;;;;;;16.67;9.82;;;18.60;99.90;;;19.09;52.48;100631.25;4825306;29;20038;-70
2021/05/13 10:04:22;;;;;;;11.25;8.75;;;18.80;99.90;;;19.10;53.21;100639.25;4823847;29;20418;-70
2021/05/13 10:06:51;;;;;;;16.83;10.05;;;18.80;99.90;;;19.13;52.94;100640.91;4824551;29;20088;-77
2021/05/13 10:09:20;;;;;;;15.82;10.27;;;18.90;99.90;;;19.13;53.82;100636.44;4824807;29;20039;-73